Time;durP1;ratioP1;P1;durP2;ratioP2;P2;SDS_P1;SDS_P2;PMS_P1;PMS_P2;Temp;Humidity;BMP_temperature;BMP_pressure;BME280_temperature;BME280_humidity;BME280_pressure;Samples;Min_cycle;Max_cycle;Signal;HPM_P1;HPM_P2
2022/07/07 00:00:23;;;;;;;5.63;2.90;;;18.30;39.50;;;;;;4918041;29;20489;-83
2022/07/07 00:02:50;;;;;;;13.63;3.63;;;18.20;39.40;;;;;;4918241;29;20472;-83
2022/07/07 00:05:17;;;;;;;6.60;3.37;;;18.30;39.70;;;;;;4935752;29;20470;-83
2022/07/07 00:07:43;;;;;;;7.10;3.37;;;18.20;39.80;;;;;;4937454;29;20477;-83
2022/07/07 00:10:10;;;;;;;7.43;2.70;;;18.20;40.10;;;;;;4921227;29;20476;-83
2022/07/07 00:12:38;;;;;;;8.13;3.20;;;18.20;40.40;;;;;;4917837;29;20458;-83
2022/07/07 00:15:06;;;;;;;6.40;2.43;;;18.10;40.60;;;;;;4932444;29;20537;-83
2022/07/07 00:17:33;;;;;;;7.00;3.10;;;18.10;41.20;;;;;;4936936;29;20456;-84
2022/07/07 00:20:00;;;;;;;9.87;2.60;;;18.10;41.70;;;;;;4923197;29;20503;-83
2022/07/07 00:22:27;;;;;;;7.13;3.30;;;18.10;42.60;;;;;;4918185;29;20460;-83
2022/07/07 00:24:53;;;;;;;6.93;3.03;;;18.10;42.60;;;;;;4929393;29;21113;-82
2022/07/07 00:27:20;;;;;;;4.77;2.27;;;18.00;42.50;;;;;;4936410;29;20463;-83
2022/07/07 00:29:48;;;;;;;5.30;2.33;;;18.00;42.50;;;;;;4926227;29;20480;-83
2022/07/07 00:32:15;;;;;;;8.30;3.33;;;18.00;42.50;;;;;;4917425;29;20464;-83
2022/07/07 00:34:42;;;;;;;5.70;2.70;;;18.10;42.60;;;;;;4927333;29;20492;-82
2022/07/07 00:37:08;;;;;;;5.63;2.20;;;18.20;42.70;;;;;;4937268;29;20849;-82
2022/07/07 00:39:35;;;;;;;5.40;2.33;;;18.10;42.60;;;;;;4922474;29;20566;-83
2022/07/07 00:42:02;;;;;;;5.53;2.67;;;18.00;42.60;;;;;;4917561;29;20467;-82
2022/07/07 00:44:28;;;;;;;8.13;2.70;;;18.00;42.50;;;;;;4917643;29;20459;-83
2022/07/07 00:46:59;;;;;;;5.63;2.70;;;18.10;42.60;;;;;;4917424;29;20459;-83
2022/07/07 00:49:26;;;;;;;5.17;2.40;;;18.10;43.20;;;;;;4929752;29;20846;-82
2022/07/07 00:51:53;;;;;;;9.10;2.60;;;17.90;43.50;;;;;;4936635;29;20485;-81
2022/07/07 00:54:20;;;;;;;8.00;2.53;;;17.90;43.30;;;;;;4924085;29;20484;-83
2022/07/07 00:56:47;;;;;;;6.50;3.20;;;17.90;44.10;;;;;;4917000;29;20468;-83
2022/07/07 00:59:13;;;;;;;5.87;2.30;;;17.90;44.20;;;;;;4916533;29;20490;-84
2022/07/07 01:01:42;;;;;;;7.30;2.57;;;17.80;43.40;;;;;;4916783;29;20920;-83
2022/07/07 01:04:13;;;;;;;8.43;2.43;;;17.80;43.60;;;;;;4917597;29;21039;-82
2022/07/07 01:06:40;;;;;;;5.70;3.10;;;17.80;43.70;;;;;;4916666;29;20457;-82
2022/07/07 01:09:08;;;;;;;8.40;2.90;;;17.80;43.70;;;;;;4917105;29;20474;-83
2022/07/07 01:11:50;;;;;;;14.37;3.50;;;17.90;44.10;;;;;;4916555;29;20980;-83
2022/07/07 01:14:17;;;;;;;11.67;3.10;;;17.80;44.50;;;;;;4924421;29;20477;-83
2022/07/07 01:16:43;;;;;;;6.10;2.97;;;17.80;44.90;;;;;;4935515;29;20987;-82
2022/07/07 01:19:12;;;;;;;10.37;2.63;;;17.80;44.80;;;;;;4929032;29;20564;-82
2022/07/07 01:21:51;;;;;;;6.23;2.90;;;17.80;44.60;;;;;;4916926;29;20457;-83
2022/07/07 01:24:20;;;;;;;7.13;3.20;;;17.80;45.20;;;;;;4922679;29;20896;-82
2022/07/07 01:26:46;;;;;;;6.80;3.10;;;17.80;46.20;;;;;;4898561;29;20459;-82
2022/07/07 01:29:13;;;;;;;7.03;3.80;;;17.70;47.10;;;;;;4909769;29;20853;-84
2022/07/07 01:31:40;;;;;;;7.47;3.73;;;17.70;47.40;;;;;;4916691;29;20552;-83
2022/07/07 01:34:07;;;;;;;12.50;3.60;;;17.80;47.90;;;;;;4927459;29;20483;-83
2022/07/07 01:36:34;;;;;;;6.43;3.93;;;17.80;48.00;;;;;;4935523;29;20467;-82
2022/07/07 01:39:01;;;;;;;7.00;3.60;;;17.70;48.60;;;;;;4925706;29;20485;-82
2022/07/07 01:41:29;;;;;;;6.83;3.70;;;17.70;49.00;;;;;;4916834;29;20485;-83
2022/07/07 01:43:56;;;;;;;12.60;4.73;;;17.70;49.60;;;;;;4924159;29;20463;-82
2022/07/07 01:46:22;;;;;;;13.30;4.37;;;17.60;50.20;;;;;;4935497;29;20543;-83
2022/07/07 01:48:49;;;;;;;9.20;4.70;;;17.60;51.00;;;;;;4928659;29;20488;-82
2022/07/07 01:51:16;;;;;;;7.30;4.03;;;17.70;51.10;;;;;;4916473;29;20464;-83
2022/07/07 01:53:42;;;;;;;8.17;4.40;;;17.60;51.00;;;;;;4926593;29;20481;-84
2022/07/07 01:56:09;;;;;;;9.67;4.80;;;17.70;51.10;;;;;;4916510;29;20466;-82
2022/07/07 01:58:37;;;;;;;11.60;3.97;;;17.60;51.00;;;;;;4916547;29;20867;-82
2022/07/07 02:01:04;;;;;;;9.10;3.97;;;17.70;51.10;;;;;;4917910;29;21011;-82
2022/07/07 02:03:31;;;;;;;10.40;4.30;;;17.60;51.60;;;;;;4934128;29;20463;-83
2022/07/07 02:05:58;;;;;;;8.20;3.50;;;17.60;52.80;;;;;;4917729;29;20834;-83
2022/07/07 02:08:24;;;;;;;9.13;3.67;;;17.60;53.20;;;;;;4919730;29;20950;-82
2022/07/07 02:13:37;;;;;;;9.10;3.70;;;17.70;54.30;;;;;;4919983;29;20489;-82
2022/07/07 02:16:05;;;;;;;6.70;3.57;;;17.60;55.30;;;;;;4938477;29;20462;-82
2022/07/07 02:18:35;;;;;;;8.83;3.80;;;17.70;56.00;;;;;;4931954;29;20993;-81
2022/07/07 02:21:02;;;;;;;8.67;3.83;;;17.60;55.90;;;;;;4919519;29;20470;-83
2022/07/07 02:23:29;;;;;;;8.67;4.10;;;17.60;56.20;;;;;;4925374;29;20462;-82
2022/07/07 02:25:56;;;;;;;9.10;4.00;;;17.60;56.00;;;;;;4938207;29;20470;-83
2022/07/07 02:28:23;;;;;;;7.00;3.60;;;17.60;56.10;;;;;;4934093;29;20457;-82
2022/07/07 02:30:52;;;;;;;6.83;3.70;;;17.70;56.20;;;;;;4919429;29;21294;-82
2022/07/07 02:33:20;;;;;;;8.80;4.37;;;17.60;56.20;;;;;;4922764;29;20458;-82
2022/07/07 02:35:47;;;;;;;7.43;3.53;;;17.60;56.60;;;;;;4937421;29;20485;-82
2022/07/07 02:38:14;;;;;;;6.00;3.70;;;17.60;56.80;;;;;;4919617;29;20474;-82
2022/07/07 02:40:42;;;;;;;8.03;3.97;;;17.50;56.70;;;;;;4918960;29;20485;-82
2022/07/07 02:43:12;;;;;;;11.13;3.77;;;17.60;57.30;;;;;;4937448;29;20481;-82
2022/07/07 02:45:39;;;;;;;7.37;3.67;;;17.50;60.40;;;;;;4938052;29;20465;-83
2022/07/07 02:48:07;;;;;;;10.30;4.30;;;17.40;59.30;;;;;;4920419;29;20846;-82
2022/07/07 02:50:34;;;;;;;8.40;4.23;;;17.40;59.40;;;;;;4934055;29;20481;-82
2022/07/07 02:53:01;;;;;;;9.27;4.67;;;17.30;60.40;;;;;;4918830;29;20458;-82
2022/07/07 02:55:27;;;;;;;8.40;4.47;;;17.20;60.30;;;;;;4919246;29;20527;-83
2022/07/07 02:57:54;;;;;;;8.20;4.20;;;17.30;60.40;;;;;;4937660;29;20456;-82
2022/07/07 03:00:21;;;;;;;7.47;3.90;;;17.30;60.00;;;;;;4937612;29;20496;-82
2022/07/07 03:02:48;;;;;;;6.20;4.10;;;17.40;60.20;;;;;;4900379;29;20576;-83
2022/07/07 03:05:16;;;;;;;10.87;4.17;;;17.40;59.40;;;;;;4899878;29;20463;-82
2022/07/07 03:07:43;;;;;;;11.13;3.90;;;17.50;59.60;;;;;;4917688;29;20462;-82
2022/07/07 03:10:10;;;;;;;8.77;3.70;;;17.50;59.50;;;;;;4918858;29;20489;-82
2022/07/07 03:12:37;;;;;;;6.47;3.20;;;17.60;59.60;;;;;;4935252;29;20844;-83
2022/07/07 03:15:04;;;;;;;8.90;4.10;;;17.50;59.50;;;;;;4937478;29;20482;-82
2022/07/07 03:17:31;;;;;;;7.40;3.77;;;17.60;59.60;;;;;;4937558;29;20975;-82
2022/07/07 03:19:57;;;;;;;6.87;3.53;;;17.60;60.00;;;;;;4927307;29;20477;-82
2022/07/07 03:22:25;;;;;;;7.10;3.50;;;17.50;60.00;;;;;;4926553;29;20465;-82
2022/07/07 03:24:52;;;;;;;9.17;4.20;;;17.60;59.60;;;;;;4918795;29;20489;-82
2022/07/07 03:27:19;;;;;;;9.67;3.67;;;17.60;59.60;;;;;;4925966;29;20466;-82
2022/07/07 03:29:46;;;;;;;7.20;3.43;;;17.60;59.60;;;;;;4937614;29;20520;-82
2022/07/07 03:32:12;;;;;;;8.80;4.50;;;17.70;59.80;;;;;;4932053;29;20465;-82
2022/07/07 03:34:39;;;;;;;6.00;3.40;;;17.70;59.00;;;;;;4919672;29;20493;-82
2022/07/07 03:37:06;;;;;;;5.90;3.27;;;17.80;59.30;;;;;;4918087;29;20470;-83
2022/07/07 03:39:34;;;;;;;9.27;3.90;;;17.80;59.50;;;;;;4919068;29;20485;-83
2022/07/07 03:42:00;;;;;;;7.33;3.50;;;17.80;58.80;;;;;;4930471;29;20471;-83
2022/07/07 03:44:28;;;;;;;6.70;3.50;;;17.80;59.20;;;;;;4928978;29;20456;-84
2022/07/07 03:46:55;;;;;;;8.10;3.43;;;17.80;59.80;;;;;;4935572;29;20469;-83
2022/07/07 03:49:22;;;;;;;7.60;4.17;;;17.80;60.00;;;;;;4923947;29;20480;-80
2022/07/07 03:51:48;;;;;;;16.03;4.17;;;17.70;60.90;;;;;;4919539;29;20467;-84
2022/07/07 03:54:15;;;;;;;11.03;4.53;;;17.60;63.80;;;;;;4921189;29;20478;-83
2022/07/07 03:56:43;;;;;;;9.13;5.33;;;17.50;66.30;;;;;;4917126;29;20458;-83
2022/07/07 03:59:10;;;;;;;7.43;6.73;;;17.30;68.50;;;;;;4928404;29;20865;-83
2022/07/07 04:01:37;;;;;;;11.20;10.30;;;17.30;71.00;;;;;;4927152;29;20460;-84
2022/07/07 04:04:04;;;;;;;11.67;10.70;;;17.20;72.30;;;;;;4936051;29;20577;-83
2022/07/07 04:06:31;;;;;;;9.03;8.23;;;17.20;72.60;;;;;;4919406;29;20458;-83
2022/07/07 04:08:58;;;;;;;15.97;14.17;;;17.10;72.70;;;;;;4916675;29;20485;-82
2022/07/07 04:11:25;;;;;;;18.10;17.00;;;17.10;74.10;;;;;;4924542;29;20461;-82
2022/07/07 04:13:53;;;;;;;17.50;16.30;;;17.10;75.50;;;;;;4920122;29;20964;-83
2022/07/07 04:16:20;;;;;;;13.40;12.30;;;17.10;75.50;;;;;;4919123;29;20466;-83
2022/07/07 04:18:47;;;;;;;11.57;10.70;;;17.10;75.40;;;;;;4935384;29;20463;-82
2022/07/07 04:21:13;;;;;;;15.37;12.00;;;17.10;75.50;;;;;;4935854;29;20468;-83
2022/07/07 04:23:40;;;;;;;13.27;12.27;;;17.20;75.40;;;;;;4935695;29;20469;-83
2022/07/07 04:26:07;;;;;;;14.80;13.60;;;17.10;74.80;;;;;;4935699;29;20456;-83
2022/07/07 04:35:14;;;;;;;8.20;7.40;;;17.40;73.00;;;;;;4802983;29;20240;-82
2022/07/07 04:37:46;;;;;;;8.10;7.10;;;17.30;72.50;;;;;;4821231;29;20506;-82
2022/07/07 04:40:13;;;;;;;8.30;7.50;;;17.40;72.40;;;;;;4930643;29;20507;-81
2022/07/07 04:42:40;;;;;;;8.07;6.43;;;17.40;72.10;;;;;;4937096;29;20842;-81
2022/07/07 04:45:08;;;;;;;6.90;6.20;;;17.50;71.40;;;;;;4922684;29;20461;-81
2022/07/07 04:47:40;;;;;;;8.30;6.60;;;17.50;71.60;;;;;;4921430;29;20469;-81
2022/07/07 04:50:08;;;;;;;8.60;5.10;;;17.50;71.20;;;;;;4929639;29;20486;-81
2022/07/07 04:52:35;;;;;;;7.47;5.17;;;17.60;70.90;;;;;;4936283;29;20462;-81
2022/07/07 04:55:01;;;;;;;6.90;4.67;;;17.60;70.00;;;;;;4917003;29;20855;-81
2022/07/07 04:57:28;;;;;;;8.90;4.90;;;17.70;69.60;;;;;;4925855;29;20466;-81
2022/07/07 04:59:55;;;;;;;14.13;4.33;;;17.60;69.40;;;;;;4944213;23;20492;-81
2022/07/07 05:02:22;;;;;;;8.93;4.53;;;17.70;68.50;;;;;;4921431;29;20530;-80
2022/07/07 05:04:50;;;;;;;7.70;4.07;;;17.70;68.00;;;;;;4940095;29;20450;-82
2022/07/07 05:07:18;;;;;;;9.73;5.80;;;17.90;70.00;;;;;;4940475;29;20458;-81
2022/07/07 05:09:44;;;;;;;6.87;5.77;;;17.60;71.20;;;;;;4941057;29;20481;-82
2022/07/07 05:12:11;;;;;;;12.30;11.20;;;17.60;73.30;;;;;;4940184;29;20968;-82
2022/07/07 05:14:38;;;;;;;11.97;6.33;;;17.50;75.60;;;;;;4942205;29;20479;-81
2022/07/07 05:17:05;;;;;;;8.83;8.03;;;17.50;72.80;;;;;;4942836;29;20459;-80
2022/07/07 05:19:32;;;;;;;8.53;7.50;;;17.50;73.50;;;;;;4941265;29;20484;-82
2022/07/07 05:22:00;;;;;;;9.20;7.30;;;17.60;72.70;;;;;;4941209;29;20972;-81
2022/07/07 05:24:26;;;;;;;8.20;6.03;;;17.70;72.00;;;;;;4940916;29;20467;-81
2022/07/07 05:26:53;;;;;;;7.30;4.73;;;17.70;71.00;;;;;;4941020;29;20462;-81
2022/07/07 05:29:20;;;;;;;6.70;4.00;;;17.90;71.30;;;;;;4940656;29;20487;-81
2022/07/07 05:31:47;;;;;;;7.17;5.20;;;17.80;71.00;;;;;;4939688;29;20535;-82
2022/07/07 05:34:14;;;;;;;17.63;11.53;;;17.70;72.40;;;;;;4939654;29;20543;-82
2022/07/07 05:36:40;;;;;;;218.80;211.83;;;17.60;77.80;;;;;;4939477;29;20477;-82
2022/07/07 05:39:09;;;;;;;467.13;452.33;;;16.70;99.90;;;;;;4940446;29;20454;-85
2022/07/07 05:42:05;;;;;;;670.37;644.50;;;16.30;99.90;;;;;;4944084;29;20457;-85
2022/07/07 05:48:29;;;;;;;;;;;;;;;;;;;;;
2022/07/07 05:51:00;;;;;;;833.30;762.73;;;15.70;99.90;;;;;;4927575;29;20560;-85
2022/07/07 05:54:09;;;;;;;820.07;748.60;;;15.60;99.90;;;;;;4927208;29;20468;-87
2022/07/07 05:56:45;;;;;;;809.63;737.97;;;15.60;99.90;;;;;;4869100;29;20541;-85
2022/07/07 05:59:27;;;;;;;805.30;732.43;;;15.70;99.90;;;;;;4938056;29;20496;-82
2022/07/07 06:02:08;;;;;;;792.77;721.13;;;15.60;99.90;;;;;;4947466;29;20464;-83
2022/07/07 06:04:35;;;;;;;797.67;725.67;;;15.80;99.90;;;;;;4948338;29;20509;-79
2022/07/07 06:07:02;;;;;;;788.87;721.27;;;15.90;99.90;;;;;;4944371;29;20452;-81
2022/07/07 06:09:29;;;;;;;783.10;718.50;;;15.90;99.90;;;;;;4944337;29;20473;-82
2022/07/07 06:11:59;;;;;;;762.20;704.10;;;16.00;99.90;;;;;;4945363;29;20471;-82
2022/07/07 06:14:26;;;;;;;752.73;694.60;;;15.80;99.90;;;;;;4945515;29;20454;-82
2022/07/07 06:16:53;;;;;;;759.87;702.20;;;15.80;99.90;;;;;;4945356;29;20531;-82
2022/07/07 06:25:29;;;;;;;763.50;700.37;;;16.40;99.90;;;;;;4944330;29;20452;-82
2022/07/07 06:27:57;;;;;;;758.20;696.23;;;16.70;99.90;;;;;;4945876;29;20486;-82
2022/07/07 06:30:24;;;;;;;760.70;704.83;;;16.80;99.90;;;;;;4944977;29;20488;-83
2022/07/07 06:32:50;;;;;;;732.90;682.70;;;16.70;99.90;;;;;;4942744;29;20460;-82
2022/07/07 06:35:20;;;;;;;733.80;687.50;;;16.70;99.90;;;;;;4944089;29;20490;-83
2022/07/07 06:37:47;;;;;;;728.13;684.30;;;16.60;99.90;;;;;;4945624;29;20475;-82
2022/07/07 06:40:14;;;;;;;659.73;625.40;;;16.70;99.90;;;;;;4944420;29;20471;-81
2022/07/07 06:42:42;;;;;;;690.87;653.60;;;16.60;99.90;;;;;;4944441;29;20882;-81
2022/07/07 06:48:32;;;;;;;643.53;614.97;;;16.40;99.90;;;;;;4939484;29;20547;-84
2022/07/07 06:54:00;;;;;;;582.37;557.97;;;16.20;99.90;;;;;;4927784;29;20461;-84
2022/07/07 06:57:05;;;;;;;670.43;636.57;;;16.30;99.90;;;;;;4943738;29;21026;-84
2022/07/07 06:59:39;;;;;;;509.13;488.87;;;16.60;99.90;;;;;;4932461;29;20482;-84
2022/07/07 07:02:09;;;;;;;649.03;619.40;;;16.70;99.90;;;;;;4942932;29;20467;-80
2022/07/07 07:04:54;;;;;;;751.33;713.53;;;16.80;99.90;;;;;;4941087;29;20504;-82
2022/07/07 07:07:21;;;;;;;651.53;623.73;;;17.10;99.90;;;;;;4940389;29;20490;-84
2022/07/07 07:09:48;;;;;;;645.73;619.27;;;17.40;99.90;;;;;;4952251;29;20480;-88
2022/07/07 07:12:14;;;;;;;417.77;403.63;;;17.70;99.90;;;;;;4944781;29;20455;-79
2022/07/07 07:14:41;;;;;;;125.43;121.43;;;17.70;99.90;;;;;;4939005;29;20455;-84
2022/07/07 07:17:09;;;;;;;102.83;99.40;;;17.40;99.90;;;;;;4941863;29;20482;-85
2022/07/07 07:19:36;;;;;;;101.63;98.17;;;17.50;99.90;;;;;;4941792;29;20489;-81
2022/07/07 07:22:03;;;;;;;45.47;43.67;;;17.70;99.90;;;;;;4941196;29;20454;-85
2022/07/07 07:24:29;;;;;;;25.17;23.80;;;17.60;99.90;;;;;;4941676;29;20461;-85
2022/07/07 07:26:56;;;;;;;10.80;10.00;;;17.60;99.90;;;;;;4941787;29;21174;-86
2022/07/07 07:29:23;;;;;;;14.57;13.50;;;17.40;99.90;;;;;;4941729;29;20475;-85
2022/07/07 07:31:50;;;;;;;5.53;4.43;;;17.90;99.90;;;;;;4935386;29;20462;-83
2022/07/07 07:34:18;;;;;;;7.00;6.23;;;18.00;99.00;;;;;;4939607;29;20465;-85
2022/07/07 07:36:45;;;;;;;4.23;2.73;;;18.20;97.70;;;;;;4943729;29;20487;-84
2022/07/07 07:39:12;;;;;;;6.30;3.22;;;18.30;95.90;;;;;;4941887;29;20961;-84
2022/07/07 07:41:39;;;;;;;6.50;2.50;;;18.60;96.80;;;;;;4942695;29;20198;-84
2022/07/07 07:44:05;;;;;;;3.70;1.70;;;18.60;94.00;;;;;;4932037;29;20469;-85
2022/07/07 07:46:32;;;;;;;3.90;2.60;;;18.00;95.50;;;;;;4923405;29;20466;-86
2022/07/07 07:49:00;;;;;;;5.97;5.43;;;16.40;99.90;;;;;;4925622;29;20466;-86
2022/07/07 07:51:28;;;;;;;46.73;44.83;;;15.80;99.90;;;;;;4923610;29;20465;-86
2022/07/07 07:53:54;;;;;;;669.40;643.03;;;15.90;99.90;;;;;;4922788;29;20486;-85
2022/07/07 07:56:21;;;;;;;671.67;646.40;;;16.00;99.90;;;;;;4922633;29;20486;-86
2022/07/07 07:58:48;;;;;;;849.27;804.80;;;16.10;99.90;;;;;;4923954;29;20947;-85
2022/07/07 08:01:15;;;;;;;856.43;803.53;;;16.40;99.90;;;;;;4922444;29;20483;-85
2022/07/07 08:03:42;;;;;;;759.50;727.10;;;16.50;99.90;;;;;;4923085;29;20470;-86
2022/07/07 08:06:08;;;;;;;637.57;613.80;;;16.40;99.90;;;;;;4922732;29;20515;-85
2022/07/07 08:08:37;;;;;;;323.93;313.87;;;16.50;99.90;;;;;;4923096;29;20461;-85
2022/07/07 08:11:03;;;;;;;134.73;130.23;;;16.40;99.90;;;;;;4923096;29;20860;-86
2022/07/07 08:13:30;;;;;;;81.37;78.47;;;16.40;99.90;;;;;;4922469;29;20836;-84
2022/07/07 08:15:57;;;;;;;40.70;39.10;;;16.30;99.90;;;;;;4921599;29;20486;-85
2022/07/07 08:18:26;;;;;;;25.57;24.07;;;16.30;99.90;;;;;;4923008;29;20471;-84
2022/07/07 08:20:53;;;;;;;15.03;13.73;;;16.20;99.90;;;;;;4923266;29;20504;-84
2022/07/07 08:23:20;;;;;;;61.90;59.57;;;16.00;99.90;;;;;;4922835;29;20455;-85
2022/07/07 08:25:48;;;;;;;82.87;80.07;;;16.70;99.90;;;;;;4926994;29;20460;-85
2022/07/07 08:28:15;;;;;;;10.23;9.50;;;17.20;99.90;;;;;;4923318;29;20468;-85
2022/07/07 08:30:41;;;;;;;6.70;6.10;;;17.20;99.90;;;;;;4923231;29;20694;-85
2022/07/07 08:33:08;;;;;;;5.37;3.47;;;17.60;99.90;;;;;;4922968;29;20457;-85
2022/07/07 08:35:35;;;;;;;9.10;2.60;;;17.80;99.90;;;;;;4923012;29;20484;-85
2022/07/07 08:38:02;;;;;;;5.33;2.17;;;18.10;97.40;;;;;;4923259;29;20467;-87
2022/07/07 08:40:29;;;;;;;5.00;2.27;;;18.30;96.10;;;;;;4923116;29;21010;-87
2022/07/07 08:42:58;;;;;;;5.13;2.87;;;17.90;94.70;;;;;;4923805;29;20465;-86
2022/07/07 08:45:24;;;;;;;8.60;6.20;;;17.10;98.30;;;;;;4922588;29;20533;-86
2022/07/07 08:47:52;;;;;;;4.00;2.93;;;16.90;99.90;;;;;;4923723;29;20465;-86
2022/07/07 08:50:18;;;;;;;11.07;10.30;;;16.90;99.50;;;;;;4922954;29;20548;-86
2022/07/07 08:52:50;;;;;;;8.67;5.90;;;17.00;99.90;;;;;;4923409;29;20464;-86
2022/07/07 08:55:21;;;;;;;4.83;3.10;;;17.40;98.20;;;;;;4923343;29;20969;-85
2022/07/07 08:57:50;;;;;;;9.67;3.17;;;17.90;96.30;;;;;;4935734;29;20551;-85
2022/07/07 09:00:18;;;;;;;4.20;1.40;;;18.40;92.00;;;;;;4940294;29;20491;-85
2022/07/07 09:02:45;;;;;;;4.73;1.60;;;18.70;90.20;;;;;;4941047;29;20455;-84
2022/07/07 09:05:11;;;;;;;5.17;1.57;;;19.30;88.20;;;;;;4939765;29;20460;-86
2022/07/07 09:07:45;;;;;;;5.77;1.10;;;19.90;82.60;;;;;;4941312;29;20464;-85
2022/07/07 09:10:12;;;;;;;6.70;1.50;;;20.50;81.30;;;;;;4941328;29;20479;-86
2022/07/07 09:12:38;;;;;;;9.23;1.60;;;20.40;74.40;;;;;;4941494;29;20798;-83
2022/07/07 09:15:07;;;;;;;4.23;0.90;;;19.80;69.90;;;;;;4940493;29;20473;-86
2022/07/07 09:17:35;;;;;;;3.63;1.00;;;19.70;70.30;;;;;;4941922;29;20488;-85
2022/07/07 09:20:05;;;;;;;5.33;1.23;;;19.60;70.80;;;;;;4942238;29;20495;-87
2022/07/07 09:22:43;;;;;;;9.20;1.60;;;19.20;69.60;;;;;;4942181;29;20452;-86
2022/07/07 09:25:10;;;;;;;4.93;1.30;;;18.90;72.50;;;;;;4940691;29;20492;-85
2022/07/07 09:27:50;;;;;;;3.63;1.03;;;18.70;74.30;;;;;;4940968;29;20458;-86
2022/07/07 09:30:31;;;;;;;3.97;0.90;;;18.70;77.00;;;;;;4941802;29;20573;-86
2022/07/07 09:33:00;;;;;;;6.13;1.67;;;18.60;74.70;;;;;;4941313;29;20886;-86
2022/07/07 09:38:22;;;;;;;8.60;1.40;;;19.60;69.70;;;;;;4941809;29;20454;-86
2022/07/07 09:41:01;;;;;;;3.90;1.10;;;19.50;67.00;;;;;;4942223;29;20483;-86
2022/07/07 09:43:30;;;;;;;3.80;0.83;;;19.70;67.70;;;;;;4941879;29;20457;-87
2022/07/07 09:46:11;;;;;;;5.00;1.53;;;19.40;65.40;;;;;;4941220;29;20449;-86
2022/07/07 09:48:41;;;;;;;7.93;1.20;;;19.40;66.90;;;;;;4942100;29;20456;-86
2022/07/07 09:51:13;;;;;;;3.90;0.80;;;19.60;63.60;;;;;;4942012;29;20473;-86
2022/07/07 09:54:04;;;;;;;3.50;0.90;;;19.80;66.00;;;;;;4941320;29;20461;-85
2022/07/07 09:56:32;;;;;;;5.30;0.90;;;19.80;63.20;;;;;;4941395;29;20737;-86
2022/07/07 09:59:00;;;;;;;5.50;1.00;;;20.30;62.10;;;;;;4941356;29;20458;-87
2022/07/07 10:01:28;;;;;;;3.40;0.87;;;21.10;60.00;;;;;;4942005;29;20532;-86
2022/07/07 10:03:57;;;;;;;5.63;1.63;;;21.60;58.70;;;;;;4942050;29;20456;-86
2022/07/07 10:06:27;;;;;;;6.40;0.90;;;21.60;55.60;;;;;;4941290;29;20527;-86
2022/07/07 10:08:58;;;;;;;5.30;0.90;;;21.90;56.70;;;;;;4941662;29;20944;-86
2022/07/07 10:11:34;;;;;;;5.73;1.07;;;21.70;53.80;;;;;;4942534;29;20515;-86
2022/07/07 10:14:11;;;;;;;4.40;0.93;;;21.20;51.10;;;;;;4941995;29;20489;-86
2022/07/07 10:16:40;;;;;;;6.40;2.47;;;21.10;59.70;;;;;;4941286;29;20491;-86
2022/07/07 10:19:34;;;;;;;5.73;1.60;;;20.90;55.00;;;;;;4941975;29;20555;-86
2022/07/07 10:22:03;;;;;;;4.30;1.00;;;20.70;58.20;;;;;;4941221;29;20478;-86
2022/07/07 10:24:32;;;;;;;4.23;1.03;;;19.40;59.70;;;;;;4940977;29;20467;-86
2022/07/07 10:27:00;;;;;;;5.33;1.30;;;19.90;61.70;;;;;;4941820;29;20994;-86
2022/07/07 10:29:42;;;;;;;4.60;1.57;;;20.40;61.10;;;;;;4944936;29;20490;-86
2022/07/07 10:32:10;;;;;;;4.13;1.03;;;21.10;57.40;;;;;;4944707;29;20467;-86
2022/07/07 10:34:40;;;;;;;5.30;0.90;;;21.40;57.80;;;;;;4944062;29;20989;-86
2022/07/07 10:37:08;;;;;;;5.03;1.20;;;21.20;53.50;;;;;;4944542;29;20499;-86
2022/07/07 10:39:43;;;;;;;4.60;1.10;;;20.90;52.50;;;;;;4944259;29;21003;-86
2022/07/07 10:42:35;;;;;;;5.60;1.33;;;21.00;50.00;;;;;;4944690;29;20457;-86
2022/07/07 10:45:02;;;;;;;3.63;1.10;;;21.10;52.70;;;;;;4944116;29;20465;-86
2022/07/07 10:47:31;;;;;;;6.07;0.90;;;20.90;51.60;;;;;;4954675;29;20458;-86
2022/07/07 10:50:01;;;;;;;6.23;1.30;;;20.70;52.90;;;;;;4951501;29;20617;-86
2022/07/07 10:52:29;;;;;;;5.40;1.50;;;20.30;56.30;;;;;;4943150;29;20461;-87
2022/07/07 10:55:00;;;;;;;6.10;1.80;;;19.90;56.90;;;;;;4943864;29;20472;-86
2022/07/07 10:57:29;;;;;;;7.00;1.57;;;19.20;58.70;;;;;;4944338;29;20480;-86
2022/07/07 11:00:11;;;;;;;4.57;1.90;;;18.00;76.40;;;;;;4954363;23;20494;-81
2022/07/07 11:02:41;;;;;;;4.80;2.17;;;17.00;83.30;;;;;;4923244;29;20464;-82
2022/07/07 11:05:36;;;;;;;7.40;1.80;;;16.80;91.30;;;;;;4922862;29;20460;-82
2022/07/07 11:08:11;;;;;;;3.90;1.70;;;16.70;93.70;;;;;;4924229;29;20465;-81
2022/07/07 11:10:47;;;;;;;4.70;2.83;;;16.80;91.00;;;;;;4926468;29;20484;-81
2022/07/07 11:13:16;;;;;;;4.57;1.37;;;17.00;93.00;;;;;;4924494;29;20459;-81
2022/07/07 11:15:43;;;;;;;3.33;1.20;;;17.30;86.50;;;;;;4925125;29;20822;-81
2022/07/07 11:18:12;;;;;;;6.83;2.50;;;17.60;83.90;;;;;;4924093;29;20486;-82
2022/07/07 11:21:00;;;;;;;5.97;2.37;;;18.10;84.30;;;;;;4923208;29;20473;-82
2022/07/07 11:23:28;;;;;;;7.67;2.20;;;18.60;78.70;;;;;;4924155;29;20460;-82
2022/07/07 11:25:57;;;;;;;5.20;1.60;;;19.40;77.60;;;;;;4923531;29;20493;-82
2022/07/07 11:28:26;;;;;;;7.83;1.67;;;20.00;70.10;;;;;;4923365;29;20547;-82
2022/07/07 11:31:05;;;;;;;4.23;1.57;;;21.70;64.20;;;;;;4922541;29;20530;-82
2022/07/07 11:33:35;;;;;;;3.80;1.10;;;22.40;55.50;;;;;;4923582;29;20460;-88
2022/07/07 11:36:12;;;;;;;4.60;1.00;;;22.20;50.40;;;;;;4924353;29;20845;-82
2022/07/07 11:38:39;;;;;;;4.43;0.97;;;22.00;50.30;;;;;;4922133;29;20459;-84
2022/07/07 11:41:06;;;;;;;5.80;1.40;;;21.50;50.30;;;;;;4923345;29;20482;-81
2022/07/07 11:43:33;;;;;;;5.87;1.30;;;20.90;52.30;;;;;;4922812;29;20464;-83
2022/07/07 11:46:00;;;;;;;6.23;1.40;;;20.50;53.70;;;;;;4922724;29;20462;-82
2022/07/07 11:48:34;;;;;;;6.50;1.37;;;20.20;55.60;;;;;;4923113;29;20460;-81
2022/07/07 11:51:01;;;;;;;11.13;1.27;;;19.80;56.80;;;;;;4922315;29;20485;-82
2022/07/07 11:53:30;;;;;;;4.00;0.93;;;19.60;58.90;;;;;;4923470;29;20460;-82
2022/07/07 11:55:56;;;;;;;8.03;1.20;;;19.90;60.90;;;;;;4922835;29;21016;-82
2022/07/07 11:58:23;;;;;;;6.30;1.47;;;20.10;59.30;;;;;;4921847;29;20485;-82
2022/07/07 12:00:54;;;;;;;5.70;1.97;;;20.20;58.40;;;;;;4922730;29;20488;-82
2022/07/07 12:03:32;;;;;;;6.27;1.30;;;20.20;55.20;;;;;;4923560;29;20466;-82
2022/07/07 12:06:00;;;;;;;4.13;1.20;;;20.50;53.70;;;;;;4922875;29;20465;-82
2022/07/07 12:08:37;;;;;;;3.60;0.90;;;20.80;56.50;;;;;;4922989;29;20554;-82
2022/07/07 12:11:04;;;;;;;5.47;1.87;;;20.60;53.80;;;;;;4923451;29;20482;-82
2022/07/07 12:13:31;;;;;;;5.90;1.27;;;20.40;53.60;;;;;;4923755;29;20473;-83
2022/07/07 12:16:03;;;;;;;5.77;1.50;;;20.60;55.60;;;;;;4922705;29;20961;-82
2022/07/07 12:18:38;;;;;;;4.67;1.40;;;20.60;55.60;;;;;;4922251;29;20489;-84
2022/07/07 12:21:08;;;;;;;5.40;1.67;;;20.80;56.30;;;;;;4921930;29;20523;-82
2022/07/07 12:23:41;;;;;;;7.73;1.53;;;20.80;55.60;;;;;;4922929;29;21043;-83
2022/07/07 12:26:10;;;;;;;5.10;1.40;;;21.10;54.60;;;;;;4921495;29;20559;-83
2022/07/07 12:28:37;;;;;;;8.13;1.70;;;21.20;54.30;;;;;;4922285;29;20459;-82
2022/07/07 12:31:05;;;;;;;5.73;1.57;;;20.70;56.60;;;;;;4921399;29;20575;-83
2022/07/07 12:33:33;;;;;;;4.63;1.80;;;20.70;56.90;;;;;;4922644;29;20463;-82
2022/07/07 12:36:08;;;;;;;6.23;1.40;;;20.40;56.30;;;;;;4920430;29;20469;-81
2022/07/07 12:41:55;;;;;;;6.73;1.67;;;21.10;56.40;;;;;;4860366;29;20478;-84
2022/07/07 12:44:35;;;;;;;5.80;1.10;;;21.20;54.30;;;;;;4921589;29;20973;-83
2022/07/07 12:47:02;;;;;;;3.63;0.93;;;20.80;54.00;;;;;;4921675;29;20445;-81
2022/07/07 12:49:29;;;;;;;5.53;1.20;;;20.40;56.10;;;;;;4922433;29;20465;-87
2022/07/07 12:51:57;;;;;;;5.13;1.50;;;19.80;56.00;;;;;;4924282;29;20960;-82
2022/07/07 12:54:27;;;;;;;5.80;1.13;;;19.20;61.10;;;;;;4924592;29;20482;-83
2022/07/07 12:56:59;;;;;;;4.70;1.33;;;19.10;65.80;;;;;;4924563;29;20541;-82
2022/07/07 12:59:35;;;;;;;6.57;1.40;;;19.00;64.60;;;;;;4924119;29;20449;-82
2022/07/07 13:02:03;;;;;;;6.77;1.40;;;19.00;65.20;;;;;;4923626;29;20450;-84
2022/07/07 13:04:43;;;;;;;4.10;1.37;;;19.20;64.80;;;;;;4924364;29;20455;-83
2022/07/07 13:07:14;;;;;;;7.63;3.43;;;19.50;63.80;;;;;;4924303;29;20481;-82
2022/07/07 13:09:47;;;;;;;4.53;1.53;;;20.10;62.10;;;;;;4917178;29;20542;-83
2022/07/07 13:12:15;;;;;;;4.90;1.43;;;20.00;60.50;;;;;;4924321;29;20446;-83
2022/07/07 13:14:42;;;;;;;6.33;1.27;;;20.20;60.80;;;;;;4923178;29;20459;-82
2022/07/07 13:17:09;;;;;;;3.90;1.50;;;20.40;61.00;;;;;;4923089;29;20488;-82
2022/07/07 13:19:41;;;;;;;6.10;1.80;;;20.60;61.10;;;;;;4921812;29;20456;-82
2022/07/07 13:22:12;;;;;;;5.40;1.33;;;20.40;61.50;;;;;;4922366;29;20464;-82